createdAt,value
2019-03-08T00:01:58.489Z,4.00
2019-03-08T00:04:34.333Z,4.00
2019-03-08T00:07:05.514Z,4.10
2019-03-08T00:09:36.561Z,4.10
2019-03-08T00:12:08.717Z,4.20
2019-03-08T00:14:39.756Z,4.30
2019-03-08T00:17:09.857Z,4.50
2019-03-08T00:19:39.961Z,4.60
2019-03-08T00:22:11.981Z,4.70
2019-03-08T00:24:45.117Z,4.80
2019-03-08T00:27:17.570Z,4.90
2019-03-08T00:29:49.829Z,4.90
2019-03-08T00:32:20.833Z,5.00
2019-03-08T00:34:52.062Z,5.10
2019-03-08T00:37:28.061Z,5.10
2019-03-08T00:39:58.173Z,5.10
2019-03-08T00:42:28.343Z,5.20
2019-03-08T00:45:07.757Z,5.20
2019-03-08T00:47:39.973Z,5.20
2019-03-08T00:50:12.181Z,5.20
2019-03-08T00:52:42.277Z,5.20
2019-03-08T00:55:14.698Z,5.10
2019-03-08T00:58:02.889Z,5.10
2019-03-08T01:00:34.121Z,5.10
2019-03-08T01:03:05.477Z,5.00
2019-03-08T01:05:36.581Z,5.10
2019-03-08T01:08:12.649Z,5.10
2019-03-08T01:10:46.355Z,5.10
2019-03-08T01:13:17.473Z,5.10
2019-03-08T01:15:49.418Z,5.10
2019-03-08T01:18:25.522Z,5.10
2019-03-08T01:20:56.637Z,5.00
2019-03-08T01:23:29.789Z,5.00
2019-03-08T01:26:00.823Z,5.00
2019-03-08T01:28:36.374Z,5.10
2019-03-08T01:31:07.697Z,5.20
2019-03-08T01:33:45.817Z,5.40
2019-03-08T01:36:15.897Z,5.40
2019-03-08T01:38:46.058Z,5.50
2019-03-08T01:41:21.249Z,5.40
2019-03-08T01:43:54.329Z,5.30
2019-03-08T01:46:26.333Z,5.20
2019-03-08T01:48:57.405Z,5.10
2019-03-08T01:51:27.485Z,5.00
2019-03-08T01:54:14.634Z,5.00
2019-03-08T01:56:45.641Z,5.00
2019-03-08T01:59:18.953Z,5.10
2019-03-08T02:01:51.070Z,5.20
2019-03-08T02:04:23.134Z,5.20
2019-03-08T02:06:53.306Z,5.10
2019-03-08T02:09:23.409Z,4.90
2019-03-08T02:11:55.498Z,4.70
2019-03-08T02:14:25.865Z,4.60
2019-03-08T02:16:56.636Z,4.60
2019-03-08T02:19:28.274Z,4.70
2019-03-08T02:21:58.357Z,4.70
2019-03-08T02:24:28.465Z,4.70
2019-03-08T02:26:58.949Z,4.70
2019-03-08T02:29:29.045Z,4.70
2019-03-08T02:31:59.149Z,4.70
2019-03-08T02:34:29.235Z,4.60
2019-03-08T02:36:59.365Z,4.70
2019-03-08T02:39:29.464Z,4.60
2019-03-08T02:42:01.541Z,4.60
2019-03-08T02:44:31.644Z,4.60
2019-03-08T02:47:01.711Z,4.70
2019-03-08T02:49:36.909Z,4.80
2019-03-08T02:52:08.161Z,4.70
2019-03-08T02:54:38.273Z,4.70
2019-03-08T02:57:08.402Z,4.60
2019-03-08T02:59:39.417Z,4.50
2019-03-08T03:02:10.436Z,4.40
2019-03-08T03:04:40.693Z,4.50
2019-03-08T03:07:10.777Z,4.60
2019-03-08T03:09:40.873Z,4.60
2019-03-08T03:12:14.199Z,4.70
2019-03-08T03:14:45.309Z,4.70
2019-03-08T03:17:17.533Z,4.70
2019-03-08T03:19:49.595Z,4.70
2019-03-08T03:22:22.810Z,4.70
2019-03-08T03:24:53.793Z,4.60
2019-03-08T03:27:23.885Z,4.50
2019-03-08T03:29:55.889Z,4.40
2019-03-08T03:32:27.959Z,4.30
2019-03-08T03:35:07.473Z,4.30
2019-03-08T03:37:37.568Z,4.20
2019-03-08T03:40:17.847Z,4.10
2019-03-08T03:42:48.082Z,4.00
2019-03-08T03:45:27.127Z,3.90
2019-03-08T03:47:59.201Z,3.80
2019-03-08T03:50:29.305Z,3.80
2019-03-08T03:52:59.409Z,3.80
2019-03-08T03:55:29.505Z,3.70
2019-03-08T03:58:00.590Z,3.70
2019-03-08T04:00:36.629Z,3.80
2019-03-08T04:03:08.761Z,3.80
2019-03-08T04:05:45.647Z,3.90
2019-03-08T04:08:15.721Z,4.10
2019-03-08T04:10:45.801Z,4.20
2019-03-08T04:13:33.989Z,4.30
2019-03-08T04:16:04.062Z,4.50
2019-03-08T04:18:35.141Z,4.70
2019-03-08T04:21:05.349Z,4.70
2019-03-08T04:23:35.389Z,4.80
2019-03-08T04:26:06.385Z,4.90
2019-03-08T04:28:36.473Z,4.90
2019-03-08T04:31:09.717Z,5.00
2019-03-08T04:33:40.729Z,5.00
2019-03-08T04:36:11.041Z,5.00
2019-03-08T04:38:41.153Z,4.90
2019-03-08T04:41:12.247Z,4.90
2019-03-08T04:43:50.197Z,4.90
2019-03-08T04:46:21.310Z,4.90
2019-03-08T04:48:58.221Z,5.00
2019-03-08T04:51:34.105Z,5.00
2019-03-08T04:54:10.023Z,5.00
2019-03-08T04:56:42.283Z,5.00
2019-03-08T04:59:12.377Z,5.00
2019-03-08T05:01:43.401Z,5.10
2019-03-08T05:04:16.573Z,5.10
2019-03-08T05:06:47.625Z,5.20
2019-03-08T05:09:17.885Z,5.30
2019-03-08T05:11:47.978Z,5.30
2019-03-08T05:14:22.205Z,5.40
2019-03-08T05:16:52.289Z,5.40
2019-03-08T05:19:23.358Z,5.40
2019-03-08T05:21:55.497Z,5.40
2019-03-08T05:24:27.557Z,5.40
2019-03-08T05:26:59.649Z,5.50
2019-03-08T05:29:29.745Z,5.50
2019-03-08T05:32:10.329Z,5.40
2019-03-08T05:34:47.181Z,5.40
2019-03-08T05:37:17.261Z,5.40
2019-03-08T05:39:47.341Z,5.40
2019-03-08T05:42:19.377Z,5.40
2019-03-08T05:44:49.474Z,5.50
2019-03-08T05:47:19.565Z,5.40
2019-03-08T05:49:50.570Z,5.40
2019-03-08T05:52:26.601Z,5.50
2019-03-08T05:54:58.686Z,5.60
2019-03-08T05:57:28.777Z,5.60
2019-03-08T06:00:11.089Z,5.70
2019-03-08T06:02:41.205Z,5.70
2019-03-08T06:05:24.385Z,5.80
2019-03-08T06:07:54.466Z,5.70
2019-03-08T06:10:32.746Z,5.80
2019-03-08T06:13:10.121Z,5.70
2019-03-08T06:15:40.373Z,5.70
2019-03-08T06:18:22.321Z,5.70
2019-03-08T06:20:52.397Z,5.70
2019-03-08T06:23:23.513Z,5.80
2019-03-08T06:25:54.598Z,5.80
2019-03-08T06:28:24.758Z,5.60
2019-03-08T06:31:04.054Z,5.70
2019-03-08T06:33:35.066Z,5.70
2019-03-08T06:36:06.137Z,5.60
2019-03-08T06:38:38.494Z,5.60
2019-03-08T06:41:08.573Z,5.70
2019-03-08T06:43:41.757Z,5.80
2019-03-08T06:46:12.833Z,5.80
2019-03-08T06:48:42.933Z,5.90
2019-03-08T06:51:24.134Z,6.00
2019-03-08T06:53:55.162Z,6.10
2019-03-08T06:56:34.398Z,6.00
2019-03-08T06:59:18.865Z,6.00
2019-03-08T07:01:49.089Z,6.00
2019-03-08T07:04:20.189Z,6.10
2019-03-08T07:06:52.415Z,6.20
2019-03-08T07:09:22.491Z,6.30
2019-03-08T07:11:54.679Z,6.30
2019-03-08T07:14:25.809Z,6.40
2019-03-08T07:16:59.909Z,6.50
2019-03-08T07:19:41.749Z,6.40
2019-03-08T07:22:11.901Z,6.30
2019-03-08T07:25:04.864Z,6.20
2019-03-08T07:27:46.585Z,6.10
2019-03-08T07:30:21.827Z,6.10
2019-03-08T07:32:53.559Z,6.30
2019-03-08T07:35:35.461Z,6.50
2019-03-08T07:38:12.257Z,6.60
2019-03-08T07:40:54.349Z,6.60
2019-03-08T07:43:26.137Z,6.60
2019-03-08T07:46:15.017Z,6.50
2019-03-08T07:49:03.955Z,6.50
2019-03-08T07:51:40.621Z,6.40
2019-03-08T07:54:15.321Z,6.40
2019-03-08T07:56:51.027Z,6.30
2019-03-08T07:59:30.865Z,6.30
2019-03-08T08:02:03.534Z,6.50
2019-03-08T08:04:38.149Z,6.50
2019-03-08T08:07:41.133Z,6.40
2019-03-08T08:10:36.649Z,6.50
2019-03-08T08:13:18.055Z,6.60
2019-03-08T08:16:01.845Z,6.60
2019-03-08T08:18:36.539Z,6.50
2019-03-08T08:21:09.161Z,6.50
2019-03-08T08:23:43.965Z,6.60
2019-03-08T08:26:33.632Z,6.80
2019-03-08T08:29:09.937Z,6.80
2019-03-08T08:32:00.500Z,6.80
2019-03-08T08:34:44.505Z,6.90
2019-03-08T08:37:22.939Z,7.10
2019-03-08T08:40:04.729Z,7.20
2019-03-08T08:42:51.274Z,7.80
2019-03-08T08:45:28.942Z,8.20
2019-03-08T08:48:10.485Z,9.50
2019-03-08T08:50:51.266Z,10.20
2019-03-08T08:53:26.229Z,10.50
2019-03-08T08:56:09.513Z,11.20
2019-03-08T08:58:45.885Z,11.10
2019-03-08T09:01:18.761Z,11.50
2019-03-08T09:03:53.365Z,11.90
2019-03-08T09:06:25.091Z,11.60
2019-03-08T09:09:02.779Z,12.30
2019-03-08T09:11:44.173Z,11.90
2019-03-08T09:14:16.477Z,11.40
2019-03-08T09:16:58.169Z,10.50
2019-03-08T09:19:42.791Z,10.60
2019-03-08T09:22:36.217Z,10.00
2019-03-08T09:25:10.037Z,9.40
2019-03-08T09:27:48.737Z,10.30
2019-03-08T09:30:21.523Z,10.20
2019-03-08T09:32:59.649Z,9.50
2019-03-08T09:35:32.319Z,9.70
2019-03-08T09:38:11.669Z,9.60
2019-03-08T09:40:59.355Z,9.20
2019-03-08T09:43:42.912Z,8.90
2019-03-08T09:46:17.613Z,8.70
2019-03-08T09:48:55.297Z,8.50
2019-03-08T09:51:36.850Z,8.30
2019-03-08T09:54:11.482Z,8.60
2019-03-08T09:56:45.925Z,8.60
2019-03-08T09:59:35.890Z,8.50
2019-03-08T10:02:20.869Z,8.50
2019-03-08T10:04:57.347Z,8.60
2019-03-08T10:07:29.234Z,9.70
2019-03-08T10:10:30.917Z,11.00
2019-03-08T10:13:20.393Z,13.00
2019-03-08T10:15:52.323Z,12.50
2019-03-08T10:18:32.806Z,13.10
2019-03-08T10:21:19.281Z,12.50
2019-03-08T10:23:54.930Z,11.90
2019-03-08T10:26:32.329Z,11.90
2019-03-08T10:29:04.367Z,11.10
2019-03-08T10:31:43.254Z,10.90
2019-03-08T10:34:31.430Z,10.40
2019-03-08T10:37:06.813Z,10.40
2019-03-08T10:39:54.729Z,10.50
2019-03-08T10:42:27.653Z,10.40
2019-03-08T10:45:05.304Z,10.50
2019-03-08T10:47:38.029Z,10.50
2019-03-08T10:50:23.344Z,10.50
2019-03-08T10:52:59.524Z,11.60
2019-03-08T10:55:37.725Z,12.10
2019-03-08T10:58:19.485Z,11.90
2019-03-08T11:00:53.961Z,13.00
2019-03-08T11:03:27.605Z,13.50
2019-03-08T11:06:05.015Z,14.30
2019-03-08T11:08:49.826Z,14.20
2019-03-08T11:11:39.473Z,12.80
2019-03-08T11:14:13.989Z,11.80
2019-03-08T11:16:45.729Z,11.10
2019-03-08T11:19:19.530Z,10.60
2019-03-08T11:22:09.210Z,10.30
2019-03-08T11:24:46.457Z,10.30
2019-03-08T11:27:24.143Z,10.00
2019-03-08T11:29:58.845Z,10.20
2019-03-08T11:32:41.782Z,10.80
2019-03-08T11:35:18.241Z,12.40
2019-03-08T11:37:51.667Z,13.50
2019-03-08T11:40:33.713Z,12.70
2019-03-08T11:43:22.854Z,12.30
2019-03-08T11:45:58.609Z,11.60
2019-03-08T11:48:36.109Z,10.90
2019-03-08T11:51:17.415Z,10.70
2019-03-08T11:53:55.995Z,10.30
2019-03-08T11:56:23.557Z,10.10
2019-03-08T11:59:04.529Z,10.20
2019-03-08T12:01:39.965Z,10.90
2019-03-08T12:04:11.721Z,11.60
2019-03-08T12:06:46.809Z,12.80
2019-03-08T12:09:32.509Z,12.50
2019-03-08T12:12:06.125Z,11.90
2019-03-08T12:14:52.701Z,12.10
2019-03-08T12:17:40.734Z,12.70
2019-03-08T12:20:22.578Z,15.30
2019-03-08T12:23:09.674Z,16.90
2019-03-08T12:25:44.647Z,14.60
2019-03-08T12:28:17.325Z,13.50
2019-03-08T12:30:58.060Z,13.40
2019-03-08T12:33:35.730Z,11.90
2019-03-08T12:36:24.350Z,12.10
2019-03-08T12:39:00.005Z,11.90
2019-03-08T12:41:48.181Z,13.10
2019-03-08T12:44:32.582Z,13.50
2019-03-08T12:47:13.789Z,12.60
2019-03-08T12:49:52.430Z,11.80
2019-03-08T12:52:31.986Z,11.30
2019-03-08T12:55:09.946Z,11.20
2019-03-08T12:57:54.394Z,11.30
2019-03-08T13:00:44.642Z,11.00
2019-03-08T13:03:16.390Z,10.70
2019-03-08T13:05:48.155Z,10.40
2019-03-08T13:08:41.755Z,10.30
2019-03-08T13:11:11.854Z,10.40
2019-03-08T13:13:42.833Z,10.20
2019-03-08T13:16:20.113Z,10.30
2019-03-08T13:18:50.221Z,10.50
2019-03-08T13:21:20.341Z,10.40
2019-03-08T13:23:51.322Z,10.30
2019-03-08T13:26:22.920Z,10.50
2019-03-08T13:28:53.907Z,11.20
2019-03-08T13:31:30.050Z,11.40
2019-03-08T13:34:00.154Z,11.30
2019-03-08T13:36:32.197Z,11.30
2019-03-08T13:39:02.474Z,11.50
2019-03-08T13:41:34.457Z,11.50
2019-03-08T13:44:04.874Z,10.90
2019-03-08T13:46:34.982Z,10.50
2019-03-08T13:49:07.014Z,10.10
2019-03-08T13:51:38.359Z,9.90
2019-03-08T13:54:08.463Z,9.70
2019-03-08T13:56:38.558Z,9.70
2019-03-08T13:59:14.442Z,9.50
2019-03-08T14:01:45.413Z,9.40
2019-03-08T14:04:15.589Z,9.60
2019-03-08T14:06:45.691Z,10.60
2019-03-08T14:09:16.739Z,11.10
2019-03-08T14:11:50.074Z,10.80
2019-03-08T14:14:20.162Z,10.50
2019-03-08T14:16:50.290Z,10.20
2019-03-08T14:19:20.399Z,10.00
2019-03-08T14:21:50.495Z,9.70
2019-03-08T14:24:20.610Z,9.70
2019-03-08T14:26:50.685Z,10.30
2019-03-08T14:29:24.494Z,10.30
2019-03-08T14:31:56.521Z,11.00
2019-03-08T14:34:27.585Z,12.00
2019-03-08T14:37:03.450Z,11.70
2019-03-08T14:39:34.449Z,11.60
2019-03-08T14:42:23.229Z,11.10
2019-03-08T14:45:03.565Z,10.70
2019-03-08T14:47:35.082Z,11.20
2019-03-08T14:50:18.338Z,10.50
2019-03-08T14:52:55.303Z,10.20
2019-03-08T14:55:34.335Z,9.60
2019-03-08T14:58:07.410Z,9.20
2019-03-08T15:00:39.478Z,9.00
2019-03-08T15:03:28.898Z,8.70
2019-03-08T15:06:10.890Z,8.30
2019-03-08T15:08:51.154Z,6.80
2019-03-08T15:11:26.262Z,5.80
2019-03-08T15:13:58.957Z,5.10
2019-03-08T15:16:35.415Z,4.70
2019-03-08T15:19:07.702Z,4.50
2019-03-08T15:21:41.505Z,4.30
2019-03-08T15:24:12.646Z,4.30
2019-03-08T15:26:45.754Z,4.30
2019-03-08T15:29:19.822Z,4.30
2019-03-08T15:31:55.261Z,4.50
2019-03-08T15:34:26.326Z,4.80
2019-03-08T15:36:58.401Z,5.20
2019-03-08T15:39:28.480Z,5.50
2019-03-08T15:42:02.444Z,5.90
2019-03-08T15:44:32.217Z,7.70
2019-03-08T15:47:03.273Z,7.70
2019-03-08T15:49:34.230Z,7.60
2019-03-08T15:52:06.345Z,8.50
2019-03-08T15:54:36.629Z,9.90
2019-03-08T15:57:15.810Z,10.50
2019-03-08T15:59:54.819Z,10.70
2019-03-08T16:02:25.873Z,10.30
2019-03-08T16:04:55.957Z,9.60
2019-03-08T16:07:27.315Z,10.00
2019-03-08T16:09:57.437Z,10.20
2019-03-08T16:12:27.530Z,10.60
2019-03-08T16:14:59.825Z,10.60
2019-03-08T16:17:31.962Z,10.50
2019-03-08T16:20:02.970Z,10.50
2019-03-08T16:22:34.918Z,10.30
2019-03-08T16:25:08.833Z,10.00
2019-03-08T16:27:46.038Z,9.80
2019-03-08T16:30:30.390Z,9.70
2019-03-08T16:33:11.888Z,9.10
2019-03-08T16:35:59.323Z,8.60
2019-03-08T16:38:41.558Z,7.60
2019-03-08T16:41:18.850Z,6.90
2019-03-08T16:43:51.143Z,6.50
2019-03-08T16:46:22.562Z,5.90
2019-03-08T16:48:57.858Z,5.50
2019-03-08T16:51:47.222Z,5.20
2019-03-08T16:54:18.630Z,5.00
2019-03-08T16:57:08.549Z,4.80
2019-03-08T16:59:43.854Z,4.60
2019-03-08T17:02:27.272Z,4.50
2019-03-08T17:05:05.746Z,4.50
2019-03-08T17:07:50.334Z,4.40
2019-03-08T17:10:26.090Z,4.30
2019-03-08T17:13:20.138Z,4.30
2019-03-08T17:16:14.890Z,4.30
2019-03-08T17:19:01.539Z,4.30
2019-03-08T17:21:34.190Z,4.30
2019-03-08T17:24:12.846Z,4.10
2019-03-08T17:26:47.210Z,4.10
2019-03-08T17:29:21.615Z,4.00
2019-03-08T17:31:59.043Z,3.90
2019-03-08T17:34:39.532Z,3.90
2019-03-08T17:37:11.262Z,3.80
2019-03-08T17:39:59.926Z,3.70
2019-03-08T17:42:31.638Z,3.70
2019-03-08T17:45:15.126Z,3.70
2019-03-08T17:48:04.859Z,3.60
2019-03-08T17:50:46.457Z,3.70
2019-03-08T17:53:28.095Z,3.60
2019-03-08T17:56:02.970Z,3.60
2019-03-08T17:58:47.902Z,3.60
2019-03-08T18:01:23.808Z,3.70
2019-03-08T18:04:11.559Z,3.90
2019-03-08T18:06:49.027Z,4.10
2019-03-08T18:09:36.886Z,4.30
2019-03-08T18:12:08.618Z,4.40
2019-03-08T18:14:40.339Z,4.40
2019-03-08T18:17:18.027Z,4.40
2019-03-08T18:20:12.758Z,4.50
2019-03-08T18:23:04.518Z,4.50
2019-03-08T18:25:39.230Z,4.40
2019-03-08T18:28:28.046Z,4.20
2019-03-08T18:31:03.762Z,4.10
2019-03-08T18:33:41.490Z,3.90
2019-03-08T18:36:19.922Z,3.90
2019-03-08T18:38:53.738Z,3.90
2019-03-08T18:41:27.946Z,3.90
2019-03-08T18:44:09.426Z,3.90
2019-03-08T18:46:49.422Z,3.70
2019-03-08T18:49:21.162Z,3.60
2019-03-08T18:51:52.886Z,3.50
2019-03-08T18:54:33.674Z,3.50
2019-03-08T18:57:11.178Z,3.40
2019-03-08T18:59:53.845Z,3.20
2019-03-08T19:02:45.814Z,3.10
2019-03-08T19:05:41.558Z,2.90
2019-03-08T19:08:13.589Z,2.70
2019-03-08T19:11:03.670Z,2.70
2019-03-08T19:13:36.301Z,2.60
2019-03-08T19:16:11.214Z,2.40
2019-03-08T19:18:47.618Z,2.30
2019-03-08T19:21:19.405Z,2.30
2019-03-08T19:23:51.142Z,2.20
2019-03-08T19:26:42.359Z,2.20
2019-03-08T19:29:28.994Z,2.00
2019-03-08T19:32:12.846Z,1.90
2019-03-08T19:34:50.242Z,1.90
2019-03-08T19:37:22.935Z,1.90
2019-03-08T19:40:07.654Z,1.80
2019-03-08T19:42:45.102Z,1.80
2019-03-08T19:45:19.223Z,1.90
2019-03-08T19:48:06.358Z,1.90
2019-03-08T19:50:50.659Z,2.00
2019-03-08T19:53:22.446Z,2.10
2019-03-08T19:56:10.056Z,2.10
2019-03-08T19:58:42.806Z,2.20
2019-03-08T20:01:25.102Z,2.20
2019-03-08T20:04:12.982Z,2.10
2019-03-08T20:07:04.078Z,2.00
2019-03-08T20:09:51.130Z,1.90
2019-03-08T20:12:31.448Z,1.80
2019-03-08T20:15:06.810Z,1.80
2019-03-08T20:17:50.862Z,1.70
2019-03-08T20:20:25.274Z,1.70
2019-03-08T20:23:06.142Z,1.60
2019-03-08T20:25:52.757Z,1.50
2019-03-08T20:28:32.334Z,1.50
2019-03-08T20:31:04.087Z,1.50
2019-03-08T20:33:42.198Z,1.60
2019-03-08T20:36:27.971Z,1.60
2019-03-08T20:39:03.434Z,1.60
2019-03-08T20:41:50.926Z,1.70
2019-03-08T20:44:28.490Z,1.70
2019-03-08T20:47:06.126Z,1.70
2019-03-08T20:49:37.212Z,1.70
2019-03-08T20:52:08.530Z,1.70
2019-03-08T20:54:40.642Z,1.60
2019-03-08T20:57:16.702Z,1.60
2019-03-08T20:59:46.790Z,1.60
2019-03-08T21:02:17.968Z,1.60
2019-03-08T21:04:48.306Z,1.70
2019-03-08T21:07:19.422Z,1.70
2019-03-08T21:09:49.518Z,1.70
2019-03-08T21:12:19.642Z,1.70
2019-03-08T21:14:51.740Z,1.80
2019-03-08T21:17:22.082Z,1.80
2019-03-08T21:19:52.360Z,1.90
2019-03-08T21:22:23.415Z,2.00
2019-03-08T21:24:59.957Z,2.10
2019-03-08T21:27:32.141Z,2.20
2019-03-08T21:30:03.347Z,2.30
2019-03-08T21:32:49.030Z,2.50
2019-03-08T21:35:36.230Z,2.50
2019-03-08T21:38:12.897Z,2.50
2019-03-08T21:41:05.506Z,2.40
2019-03-08T21:43:36.242Z,2.50
2019-03-08T21:46:07.226Z,2.50
2019-03-08T21:48:37.337Z,2.50
2019-03-08T21:51:07.665Z,2.50
2019-03-08T21:53:38.046Z,2.60
2019-03-08T21:56:08.154Z,2.60
2019-03-08T21:59:12.887Z,2.60
2019-03-08T22:02:18.104Z,2.60
2019-03-08T22:04:51.717Z,2.50
2019-03-08T22:07:23.834Z,2.50
2019-03-08T22:09:55.573Z,2.60
2019-03-08T22:12:25.813Z,2.50
2019-03-08T22:14:55.910Z,2.50
2019-03-08T22:17:28.301Z,2.50
2019-03-08T22:20:00.574Z,2.50
2019-03-08T22:22:32.623Z,2.50
2019-03-08T22:25:04.734Z,2.50
2019-03-08T22:27:36.834Z,2.60
2019-03-08T22:30:16.918Z,2.60
2019-03-08T22:32:47.030Z,2.60
2019-03-08T22:35:23.879Z,2.60
2019-03-08T22:37:54.190Z,2.60
2019-03-08T22:40:25.225Z,2.60
2019-03-08T22:42:56.278Z,2.60
2019-03-08T22:45:27.062Z,2.60
2019-03-08T22:47:57.178Z,2.70
2019-03-08T22:50:27.253Z,2.80
2019-03-08T22:52:57.382Z,2.70
2019-03-08T22:55:27.466Z,2.70
2019-03-08T22:57:58.440Z,2.80
2019-03-08T23:00:55.529Z,2.80
2019-03-08T23:03:26.247Z,2.80
2019-03-08T23:05:56.391Z,2.80
2019-03-08T23:08:27.510Z,2.90
2019-03-08T23:10:57.611Z,2.90
2019-03-08T23:13:28.109Z,2.90
2019-03-08T23:15:58.248Z,2.90
2019-03-08T23:18:28.354Z,3.00
2019-03-08T23:20:59.506Z,3.00
2019-03-08T23:23:38.626Z,3.00
2019-03-08T23:26:10.691Z,3.00
2019-03-08T23:29:00.642Z,3.00
2019-03-08T23:31:36.050Z,3.00
2019-03-08T23:34:09.182Z,3.00
2019-03-08T23:36:42.534Z,3.00
2019-03-08T23:39:13.842Z,3.00
2019-03-08T23:41:43.986Z,3.00
2019-03-08T23:44:19.938Z,3.00
2019-03-08T23:46:53.518Z,3.00
2019-03-08T23:49:23.862Z,3.00
2019-03-08T23:51:59.873Z,2.90
2019-03-08T23:54:29.982Z,2.90
2019-03-08T23:57:00.067Z,2.80
2019-03-08T23:59:30.348Z,2.80
